Time;durP1;ratioP1;P1;durP2;ratioP2;P2;SDS_P1;SDS_P2;PMS_P1;PMS_P2;Temp;Humidity;BMP_temperature;BMP_pressure;BME280_temperature;BME280_humidity;BME280_pressure;Samples;Min_cycle;Max_cycle;Signal;HPM_P1;HPM_P2
2023/01/25 00:01:19;;;;;;;20.93;13.60;;;;;;;;;;5017047;28;20187;-75
2023/01/25 00:03:45;;;;;;;20.00;13.33;;;;;;;;;;5016459;28;20206;-75
2023/01/25 00:06:12;;;;;;;21.27;13.60;;;;;;;;;;5013775;28;20182;-75
2023/01/25 00:08:38;;;;;;;21.40;14.17;;;;;;;;;;5006406;28;20270;-75
2023/01/25 00:11:04;;;;;;;20.00;12.90;;;;;;;;;;5018766;28;20305;-75
2023/01/25 00:13:31;;;;;;;18.77;13.90;;;;;;;;;;5015313;28;20764;-75
2023/01/25 00:16:01;;;;;;;20.13;13.23;;;;;;;;;;5014111;28;20224;-75
2023/01/25 00:18:27;;;;;;;21.27;13.13;;;;;;;;;;5018821;28;20433;-75
2023/01/25 00:20:53;;;;;;;20.50;12.83;;;;;;;;;;5018754;28;20230;-75
2023/01/25 00:23:19;;;;;;;18.13;12.30;;;;;;;;;;5001943;28;20252;-75
2023/01/25 00:25:45;;;;;;;17.57;11.53;;;;;;;;;;5020031;28;20222;-75
2023/01/25 00:28:12;;;;;;;17.77;11.63;;;;;;;;;;5018675;28;20509;-75
2023/01/25 00:30:38;;;;;;;16.60;11.13;;;;;;;;;;5013640;28;20170;-75
2023/01/25 00:33:04;;;;;;;15.27;10.93;;;;;;;;;;4998789;28;20186;-75
2023/01/25 00:35:31;;;;;;;17.17;11.03;;;;;;;;;;5002237;28;20214;-75
2023/01/25 00:38:00;;;;;;;16.10;10.60;;;;;;;;;;5016593;28;20224;-75
2023/01/25 00:40:27;;;;;;;17.30;10.23;;;;;;;;;;5020241;28;20257;-75
2023/01/25 00:42:53;;;;;;;16.23;10.50;;;;;;;;;;4989375;28;20256;-75
2023/01/25 00:45:19;;;;;;;15.40;10.57;;;;;;;;;;5016441;28;20209;-75
2023/01/25 00:47:45;;;;;;;15.73;10.90;;;;;;;;;;5013672;28;20217;-75
2023/01/25 00:50:12;;;;;;;16.43;10.07;;;;;;;;;;5019045;28;20648;-76
2023/01/25 00:52:39;;;;;;;15.10;10.33;;;;;;;;;;5019130;28;20242;-75
2023/01/25 00:55:06;;;;;;;14.43;10.10;;;;;;;;;;5018132;28;20206;-76
2023/01/25 00:57:32;;;;;;;13.33;9.13;;;;;;;;;;5004866;28;20186;-75
2023/01/25 00:59:59;;;;;;;13.37;9.17;;;;;;;;;;5022592;28;20176;-75
2023/01/25 01:02:25;;;;;;;13.00;8.60;;;;;;;;;;5025463;28;20183;-75
2023/01/25 01:04:55;;;;;;;14.83;10.13;;;;;;;;;;5020253;28;20702;-75
2023/01/25 01:07:21;;;;;;;13.57;9.23;;;;;;;;;;5022838;28;20210;-75
2023/01/25 01:09:48;;;;;;;13.63;9.00;;;;;;;;;;5022015;28;20171;-76
2023/01/25 01:12:14;;;;;;;13.33;9.17;;;;;;;;;;5007726;28;20649;-75
2023/01/25 01:14:41;;;;;;;16.10;10.50;;;;;;;;;;5020762;28;20198;-76
2023/01/25 01:17:08;;;;;;;14.83;9.47;;;;;;;;;;5004473;28;20187;-76
2023/01/25 01:19:34;;;;;;;14.30;10.17;;;;;;;;;;5021844;28;20171;-76
2023/01/25 01:22:00;;;;;;;15.60;10.80;;;;;;;;;;5019438;28;20213;-75
2023/01/25 01:24:28;;;;;;;17.77;11.40;;;;;;;;;;5008755;28;20205;-76
2023/01/25 01:26:54;;;;;;;16.70;11.03;;;;;;;;;;5022434;28;20201;-75
2023/01/25 01:29:20;;;;;;;16.63;11.07;;;;;;;;;;5017725;28;20282;-75
2023/01/25 01:31:50;;;;;;;20.60;12.30;;;;;;;;;;5016367;28;20197;-76
2023/01/25 01:34:21;;;;;;;18.03;11.90;;;;;;;;;;5007712;28;20900;-76
2023/01/25 01:36:48;;;;;;;18.50;11.93;;;;;;;;;;5021603;28;20182;-75
2023/01/25 01:39:15;;;;;;;17.67;11.17;;;;;;;;;;5006707;28;20202;-74
2023/01/25 01:41:42;;;;;;;21.60;12.47;;;;;;;;;;5005261;28;20202;-73
2023/01/25 01:44:17;;;;;;;19.20;13.10;;;;;;;;;;5023788;28;20221;-73
2023/01/25 01:46:51;;;;;;;20.37;11.77;;;;;;;;;;5001529;28;20902;-74
2023/01/25 01:49:27;;;;;;;17.70;11.40;;;;;;;;;;5019816;28;20273;-73
2023/01/25 01:52:03;;;;;;;18.20;11.93;;;;;;;;;;5020166;28;20258;-74
2023/01/25 01:54:33;;;;;;;20.33;13.30;;;;;;;;;;5020370;28;20232;-73
2023/01/25 01:57:09;;;;;;;19.10;12.80;;;;;;;;;;5022495;28;20644;-73
2023/01/25 01:59:44;;;;;;;17.63;12.30;;;;;;;;;;5016822;28;20586;-73
2023/01/25 02:02:11;;;;;;;16.50;11.40;;;;;;;;;;5016573;28;20250;-73
2023/01/25 02:04:37;;;;;;;16.70;11.07;;;;;;;;;;5017844;28;20195;-73
2023/01/25 02:07:16;;;;;;;16.50;10.90;;;;;;;;;;5024142;28;20207;-74
2023/01/25 02:09:45;;;;;;;16.40;11.23;;;;;;;;;;5021507;28;20217;-76
2023/01/25 02:12:12;;;;;;;16.13;10.17;;;;;;;;;;5021472;28;20186;-75
2023/01/25 02:14:44;;;;;;;17.57;11.33;;;;;;;;;;5001987;28;20206;-75
2023/01/25 02:17:11;;;;;;;16.90;10.93;;;;;;;;;;5016216;28;20203;-75
2023/01/25 02:19:48;;;;;;;17.27;11.03;;;;;;;;;;5024614;28;20211;-75
2023/01/25 02:22:15;;;;;;;17.00;11.33;;;;;;;;;;5027119;28;20186;-75
2023/01/25 02:24:46;;;;;;;16.73;10.80;;;;;;;;;;5016303;28;20199;-75
2023/01/25 02:27:12;;;;;;;18.93;11.77;;;;;;;;;;5020415;28;20772;-75
2023/01/25 02:29:39;;;;;;;18.40;12.00;;;;;;;;;;5010796;28;20181;-75
2023/01/25 02:32:05;;;;;;;18.30;11.43;;;;;;;;;;5017244;28;20210;-75
2023/01/25 02:34:32;;;;;;;19.23;12.00;;;;;;;;;;5016368;28;20249;-75
2023/01/25 02:36:58;;;;;;;19.23;12.13;;;;;;;;;;5015190;28;20225;-75
2023/01/25 02:39:27;;;;;;;21.13;12.43;;;;;;;;;;5020482;28;20179;-75
2023/01/25 02:41:53;;;;;;;21.17;13.57;;;;;;;;;;5041519;28;20229;-75
2023/01/25 02:44:22;;;;;;;19.40;12.77;;;;;;;;;;5020092;28;20207;-75
2023/01/25 02:46:48;;;;;;;18.70;12.33;;;;;;;;;;5016263;28;20206;-75
2023/01/25 02:49:15;;;;;;;21.53;13.30;;;;;;;;;;5019717;28;20335;-75
2023/01/25 02:51:42;;;;;;;18.93;12.43;;;;;;;;;;5037752;28;20596;-75
2023/01/25 02:54:09;;;;;;;22.63;12.47;;;;;;;;;;5018662;28;20218;-76
2023/01/25 02:56:36;;;;;;;21.27;13.70;;;;;;;;;;5017315;28;20186;-75
2023/01/25 02:59:05;;;;;;;20.57;13.37;;;;;;;;;;5003952;28;20193;-76
2023/01/25 03:01:33;;;;;;;20.90;13.97;;;;;;;;;;5017165;28;20197;-75
2023/01/25 03:03:59;;;;;;;21.43;13.93;;;;;;;;;;5021258;28;20207;-75
2023/01/25 03:06:26;;;;;;;22.47;14.23;;;;;;;;;;5021521;28;20225;-75
2023/01/25 03:08:53;;;;;;;21.37;13.03;;;;;;;;;;5019901;28;20694;-75
2023/01/25 03:11:20;;;;;;;22.07;12.97;;;;;;;;;;5018945;28;20274;-75
2023/01/25 03:13:46;;;;;;;22.10;13.33;;;;;;;;;;5018160;28;20174;-76
2023/01/25 03:16:13;;;;;;;22.20;13.80;;;;;;;;;;5016486;28;20166;-75
2023/01/25 03:18:42;;;;;;;20.87;13.63;;;;;;;;;;5018764;28;20734;-75
2023/01/25 03:21:18;;;;;;;21.97;13.53;;;;;;;;;;5015862;28;20236;-76
2023/01/25 03:23:45;;;;;;;20.63;13.50;;;;;;;;;;5042905;28;20189;-75
2023/01/25 03:26:17;;;;;;;22.03;14.70;;;;;;;;;;5015151;28;20187;-75
2023/01/25 03:29:08;;;;;;;21.27;13.63;;;;;;;;;;5017711;28;20230;-75
2023/01/25 03:31:37;;;;;;;25.30;15.20;;;;;;;;;;5023236;28;20194;-75
2023/01/25 03:34:03;;;;;;;24.10;14.53;;;;;;;;;;5023241;28;20241;-76
2023/01/25 03:36:34;;;;;;;24.27;14.00;;;;;;;;;;5020533;28;20225;-75
2023/01/25 03:39:00;;;;;;;25.07;15.23;;;;;;;;;;5017807;28;20193;-75
2023/01/25 03:41:26;;;;;;;24.97;14.33;;;;;;;;;;5019150;28;20285;-75
2023/01/25 03:43:56;;;;;;;23.07;13.43;;;;;;;;;;5015631;28;20218;-75
2023/01/25 03:46:22;;;;;;;22.30;13.83;;;;;;;;;;5014545;28;20187;-75
2023/01/25 03:48:48;;;;;;;22.50;14.43;;;;;;;;;;5017079;28;20198;-75
2023/01/25 03:51:15;;;;;;;21.60;13.90;;;;;;;;;;5023174;28;20184;-75
2023/01/25 03:53:41;;;;;;;24.07;14.37;;;;;;;;;;5015744;28;20187;-75
2023/01/25 03:56:18;;;;;;;24.10;14.53;;;;;;;;;;5012927;28;20263;-75
2023/01/25 03:58:51;;;;;;;22.27;14.10;;;;;;;;;;5014856;28;20201;-75
2023/01/25 04:01:17;;;;;;;24.13;13.53;;;;;;;;;;5014032;28;20187;-75
2023/01/25 04:03:43;;;;;;;25.77;14.90;;;;;;;;;;5015578;28;20190;-75
2023/01/25 04:06:10;;;;;;;24.00;14.40;;;;;;;;;;5015180;28;20337;-75
2023/01/25 04:08:38;;;;;;;21.83;13.27;;;;;;;;;;5015387;28;20565;-75
2023/01/25 04:11:09;;;;;;;23.27;14.10;;;;;;;;;;5018434;28;20933;-76
2023/01/25 04:13:36;;;;;;;22.57;14.30;;;;;;;;;;5020188;28;20190;-76
2023/01/25 04:16:12;;;;;;;22.83;13.97;;;;;;;;;;5019788;28;20175;-75
2023/01/25 04:18:56;;;;;;;21.33;12.67;;;;;;;;;;5015003;28;20712;-75
2023/01/25 04:21:23;;;;;;;18.90;12.73;;;;;;;;;;5016846;28;20197;-75
2023/01/25 04:23:49;;;;;;;20.70;12.17;;;;;;;;;;5035823;28;20183;-75
2023/01/25 04:26:16;;;;;;;20.40;12.77;;;;;;;;;;4998661;28;21237;-76
2023/01/25 04:28:49;;;;;;;20.27;13.20;;;;;;;;;;5020991;28;20198;-75
2023/01/25 04:31:15;;;;;;;21.20;13.10;;;;;;;;;;5019448;28;20278;-75
2023/01/25 04:33:42;;;;;;;21.20;13.10;;;;;;;;;;5017547;28;20576;-75
2023/01/25 04:36:09;;;;;;;24.57;13.60;;;;;;;;;;5018443;28;20550;-76
2023/01/25 04:38:35;;;;;;;21.63;13.67;;;;;;;;;;5020290;28;21018;-75
2023/01/25 04:41:03;;;;;;;21.73;12.90;;;;;;;;;;5006104;28;20186;-75
2023/01/25 04:43:30;;;;;;;21.83;12.63;;;;;;;;;;5018094;28;20802;-76
2023/01/25 04:46:01;;;;;;;21.07;13.07;;;;;;;;;;5020976;28;20213;-75
2023/01/25 04:48:31;;;;;;;21.40;12.97;;;;;;;;;;5013204;28;20221;-75
2023/01/25 04:51:00;;;;;;;19.80;12.40;;;;;;;;;;5015746;28;20965;-76
2023/01/25 04:53:26;;;;;;;19.87;11.97;;;;;;;;;;5021745;28;20185;-75
2023/01/25 04:55:54;;;;;;;19.80;12.20;;;;;;;;;;5023320;28;20207;-75
2023/01/25 04:58:23;;;;;;;20.50;12.33;;;;;;;;;;5015438;28;20187;-75
2023/01/25 05:00:51;;;;;;;21.37;12.93;;;;;;;;;;5015986;28;20210;-75
2023/01/25 05:03:17;;;;;;;19.10;12.23;;;;;;;;;;5014524;28;20206;-75
2023/01/25 05:05:45;;;;;;;20.43;12.53;;;;;;;;;;5018940;28;20234;-75
2023/01/25 05:08:11;;;;;;;19.47;12.40;;;;;;;;;;5017141;28;20210;-75
2023/01/25 05:10:37;;;;;;;20.07;12.27;;;;;;;;;;5014739;28;20179;-75
2023/01/25 05:13:26;;;;;;;20.33;14.15;;;;;;;;;;5015780;28;20513;-75
2023/01/25 05:16:05;;;;;;;18.63;12.57;;;;;;;;;;5012961;28;20189;-75
2023/01/25 05:18:31;;;;;;;20.77;12.40;;;;;;;;;;5013544;28;20193;-75
2023/01/25 05:20:57;;;;;;;20.57;12.27;;;;;;;;;;5015695;28;20183;-76
2023/01/25 05:23:25;;;;;;;20.97;13.03;;;;;;;;;;5019732;28;20191;-75
2023/01/25 05:28:37;;;;;;;21.63;13.07;;;;;;;;;;5012238;28;20295;-75
2023/01/25 05:31:14;;;;;;;21.03;12.87;;;;;;;;;;5019552;28;20187;-75
2023/01/25 05:33:41;;;;;;;19.67;12.00;;;;;;;;;;5018965;28;20205;-76
2023/01/25 05:36:07;;;;;;;21.67;12.83;;;;;;;;;;5021844;28;20185;-75
2023/01/25 05:38:36;;;;;;;21.43;13.70;;;;;;;;;;5019779;28;20210;-75
2023/01/25 05:41:02;;;;;;;22.30;13.33;;;;;;;;;;5024105;28;20183;-75
2023/01/25 05:43:29;;;;;;;19.57;12.47;;;;;;;;;;5034077;28;20697;-75
2023/01/25 05:45:57;;;;;;;20.70;12.63;;;;;;;;;;5021287;28;20288;-75
2023/01/25 05:48:23;;;;;;;19.87;12.80;;;;;;;;;;5020818;28;20712;-75
2023/01/25 05:50:50;;;;;;;19.40;12.03;;;;;;;;;;5002794;28;20560;-75
2023/01/25 05:53:24;;;;;;;17.07;10.87;;;;;;;;;;5023735;28;20174;-75
2023/01/25 05:55:50;;;;;;;18.87;11.83;;;;;;;;;;5003949;28;20207;-75
2023/01/25 05:58:17;;;;;;;18.73;11.67;;;;;;;;;;5022632;28;22142;-75
2023/01/25 06:00:43;;;;;;;17.93;11.20;;;;;;;;;;5021034;28;20186;-75
2023/01/25 06:03:14;;;;;;;16.57;10.17;;;;;;;;;;5020258;28;20178;-75
2023/01/25 06:05:40;;;;;;;17.10;11.40;;;;;;;;;;5037984;28;20202;-75
2023/01/25 06:08:07;;;;;;;18.20;11.40;;;;;;;;;;5022253;28;21828;-75
2023/01/25 06:10:41;;;;;;;16.70;10.43;;;;;;;;;;5022393;28;20189;-75
2023/01/25 06:13:08;;;;;;;20.33;11.70;;;;;;;;;;5022473;28;20178;-75
2023/01/25 06:15:34;;;;;;;18.03;11.63;;;;;;;;;;5019894;28;20242;-75
2023/01/25 06:18:20;;;;;;;17.57;11.10;;;;;;;;;;5021772;28;20201;-75
2023/01/25 06:21:07;;;;;;;18.70;12.00;;;;;;;;;;4992751;28;20197;-76
2023/01/25 06:23:36;;;;;;;19.03;11.70;;;;;;;;;;5020269;28;20187;-76
2023/01/25 06:26:04;;;;;;;18.30;10.87;;;;;;;;;;5016384;28;20650;-78
2023/01/25 06:28:34;;;;;;;19.70;12.07;;;;;;;;;;5019167;28;20207;-76
2023/01/25 06:31:07;;;;;;;16.60;10.77;;;;;;;;;;5038346;28;20175;-76
2023/01/25 06:33:34;;;;;;;18.43;11.50;;;;;;;;;;5020473;28;20185;-76
2023/01/25 06:36:05;;;;;;;17.10;10.73;;;;;;;;;;5001553;28;20245;-76
2023/01/25 06:38:32;;;;;;;19.10;11.27;;;;;;;;;;5020198;28;20187;-76
2023/01/25 06:40:59;;;;;;;20.23;10.97;;;;;;;;;;5019148;28;20213;-76
2023/01/25 06:43:25;;;;;;;14.57;10.03;;;;;;;;;;5022459;28;20191;-76
2023/01/25 06:45:51;;;;;;;17.63;10.73;;;;;;;;;;5020327;28;20261;-76
2023/01/25 06:48:17;;;;;;;15.03;10.17;;;;;;;;;;5017729;28;20247;-76
2023/01/25 06:50:43;;;;;;;17.43;9.40;;;;;;;;;;5025427;28;20213;-76
2023/01/25 06:53:10;;;;;;;13.50;9.73;;;;;;;;;;5021458;28;20540;-76
2023/01/25 06:55:36;;;;;;;13.10;8.70;;;;;;;;;;5019287;28;20218;-76
2023/01/25 06:58:02;;;;;;;12.87;8.53;;;;;;;;;;5023406;28;20301;-76
2023/01/25 07:00:28;;;;;;;13.20;9.30;;;;;;;;;;5025455;28;20179;-75
2023/01/25 07:02:54;;;;;;;13.57;10.05;;;;;;;;;;5022914;28;20427;-75
2023/01/25 07:05:20;;;;;;;12.37;9.17;;;;;;;;;;5023089;28;20219;-75
2023/01/25 07:07:47;;;;;;;15.23;10.40;;;;;;;;;;5015318;28;20531;-75
2023/01/25 07:10:13;;;;;;;14.37;10.10;;;;;;;;;;5023280;28;20194;-76
2023/01/25 07:12:39;;;;;;;15.57;10.90;;;;;;;;;;5021243;28;20613;-76
2023/01/25 07:15:05;;;;;;;12.80;8.83;;;;;;;;;;5024227;28;20292;-76
2023/01/25 07:17:32;;;;;;;12.97;8.70;;;;;;;;;;5016950;28;20182;-76
2023/01/25 07:19:58;;;;;;;11.73;8.23;;;;;;;;;;5023667;28;20194;-75
2023/01/25 07:22:24;;;;;;;12.83;7.90;;;;;;;;;;5024093;28;20658;-75
2023/01/25 07:24:51;;;;;;;10.70;7.50;;;;;;;;;;5023018;28;20280;-76
2023/01/25 07:27:17;;;;;;;13.03;8.17;;;;;;;;;;5022155;28;20190;-76
2023/01/25 07:29:44;;;;;;;11.97;8.20;;;;;;;;;;5016061;28;20241;-76
2023/01/25 07:32:13;;;;;;;11.33;7.20;;;;;;;;;;5022204;28;20182;-76
2023/01/25 07:34:39;;;;;;;11.50;7.80;;;;;;;;;;5017795;28;20210;-76
2023/01/25 07:37:05;;;;;;;10.63;7.37;;;;;;;;;;5019212;28;20351;-76
2023/01/25 07:39:31;;;;;;;9.87;7.17;;;;;;;;;;5016568;28;20181;-76
2023/01/25 07:41:57;;;;;;;11.73;7.93;;;;;;;;;;5015629;28;20198;-76
2023/01/25 07:44:30;;;;;;;11.13;7.70;;;;;;;;;;5016823;28;20241;-76
2023/01/25 07:47:07;;;;;;;11.83;8.17;;;;;;;;;;5017806;28;20229;-75
2023/01/25 07:49:34;;;;;;;10.77;8.17;;;;;;;;;;5020616;28;20222;-76
2023/01/25 07:52:00;;;;;;;11.37;8.20;;;;;;;;;;5023301;28;20170;-76
2023/01/25 07:54:26;;;;;;;12.67;8.57;;;;;;;;;;5025923;28;20747;-76
2023/01/25 07:56:52;;;;;;;12.13;7.83;;;;;;;;;;5020961;28;20177;-76
2023/01/25 07:59:18;;;;;;;14.57;8.70;;;;;;;;;;5021302;28;20178;-76
2023/01/25 08:01:44;;;;;;;12.33;7.90;;;;;;;;;;5017808;28;20179;-76
2023/01/25 08:04:10;;;;;;;13.60;8.77;;;;;;;;;;5016893;28;20249;-76
2023/01/25 08:06:40;;;;;;;12.47;8.20;;;;;;;;;;5021009;28;20190;-76
2023/01/25 08:09:18;;;;;;;13.57;8.80;;;;;;;;;;5018351;28;20293;-76
2023/01/25 08:11:46;;;;;;;12.53;8.73;;;;;;;;;;5016114;28;20174;-76
2023/01/25 08:14:12;;;;;;;12.93;8.77;;;;;;;;;;5014575;28;20199;-76
2023/01/25 08:16:38;;;;;;;12.83;8.30;;;;;;;;;;5013532;28;20236;-76
2023/01/25 08:19:05;;;;;;;13.40;8.73;;;;;;;;;;5018593;28;20182;-76
2023/01/25 08:21:32;;;;;;;11.77;8.17;;;;;;;;;;5022956;28;20189;-76
2023/01/25 08:23:59;;;;;;;11.97;8.57;;;;;;;;;;5011563;28;20213;-76
2023/01/25 08:26:25;;;;;;;13.13;8.00;;;;;;;;;;5017486;28;20242;-76
2023/01/25 08:28:52;;;;;;;11.90;8.20;;;;;;;;;;5021947;28;20253;-76
2023/01/25 08:31:23;;;;;;;11.00;8.20;;;;;;;;;;5021182;28;20187;-76
2023/01/25 08:33:50;;;;;;;12.57;8.77;;;;;;;;;;5016294;28;20443;-76
2023/01/25 08:36:17;;;;;;;13.40;8.87;;;;;;;;;;5015024;28;20694;-76
2023/01/25 08:38:43;;;;;;;13.27;8.60;;;;;;;;;;5018961;28;20921;-76
2023/01/25 08:41:11;;;;;;;13.40;9.00;;;;;;;;;;5019020;28;20722;-76
2023/01/25 08:43:37;;;;;;;15.73;9.53;;;;;;;;;;5017915;28;20329;-76
2023/01/25 08:46:04;;;;;;;15.47;9.90;;;;;;;;;;5021056;28;20186;-76
2023/01/25 08:48:30;;;;;;;14.40;9.83;;;;;;;;;;5018294;28;20231;-76
2023/01/25 08:50:57;;;;;;;17.20;10.60;;;;;;;;;;5018597;28;20187;-76
2023/01/25 08:53:23;;;;;;;16.13;10.30;;;;;;;;;;5016080;28;20187;-76
2023/01/25 08:55:49;;;;;;;15.50;9.77;;;;;;;;;;5017580;28;20719;-76
2023/01/25 08:58:18;;;;;;;15.43;9.77;;;;;;;;;;5017768;28;20249;-76
2023/01/25 09:00:44;;;;;;;12.07;7.97;;;;;;;;;;5014657;28;20175;-76
2023/01/25 09:03:11;;;;;;;15.83;10.03;;;;;;;;;;5018286;28;20198;-76
2023/01/25 09:05:38;;;;;;;15.73;9.33;;;;;;;;;;5018536;28;20250;-76
2023/01/25 09:08:05;;;;;;;14.13;9.37;;;;;;;;;;5018326;28;20252;-76
2023/01/25 09:10:31;;;;;;;14.40;9.33;;;;;;;;;;5017494;28;20185;-76
2023/01/25 09:12:57;;;;;;;13.50;9.10;;;;;;;;;;5022520;28;20210;-76
2023/01/25 09:15:24;;;;;;;15.30;9.37;;;;;;;;;;5019124;28;20701;-76
2023/01/25 09:17:51;;;;;;;11.83;8.10;;;;;;;;;;5018332;28;20190;-76
2023/01/25 09:20:17;;;;;;;15.17;9.10;;;;;;;;;;5025343;28;20201;-76
2023/01/25 09:22:43;;;;;;;14.27;9.10;;;;;;;;;;5022696;28;20191;-76
2023/01/25 09:25:10;;;;;;;15.07;9.60;;;;;;;;;;5016334;28;20221;-76
2023/01/25 09:27:36;;;;;;;14.70;9.63;;;;;;;;;;5017704;28;20218;-76
2023/01/25 09:30:03;;;;;;;13.17;8.60;;;;;;;;;;5022889;28;20183;-76
2023/01/25 09:32:29;;;;;;;12.23;8.50;;;;;;;;;;5001933;28;20324;-76
2023/01/25 09:34:56;;;;;;;14.40;8.93;;;;;;;;;;5024525;28;20226;-76
2023/01/25 09:37:22;;;;;;;15.70;10.30;;;;;;;;;;5019406;28;20183;-76
2023/01/25 09:39:48;;;;;;;13.73;9.10;;;;;;;;;;5020387;28;20179;-76
2023/01/25 09:42:33;;;;;;;15.83;10.37;;;;;;;;;;5020513;28;20217;-76
2023/01/25 09:45:05;;;;;;;15.00;9.87;;;;;;;;;;5021169;28;20236;-76
2023/01/25 09:47:31;;;;;;;15.33;9.50;;;;;;;;;;5024672;28;20211;-76
2023/01/25 09:50:08;;;;;;;13.37;9.17;;;;;;;;;;5023970;28;20175;-76
2023/01/25 09:52:59;;;;;;;15.20;9.80;;;;;;;;;;5019068;28;20591;-76
2023/01/25 09:55:27;;;;;;;14.67;9.63;;;;;;;;;;5018312;28;20206;-76
2023/01/25 09:57:55;;;;;;;14.50;9.50;;;;;;;;;;5026344;28;20193;-76
2023/01/25 10:00:29;;;;;;;14.27;9.83;;;;;;;;;;5024162;28;20179;-76
2023/01/25 10:03:00;;;;;;;13.17;8.97;;;;;;;;;;5024868;28;20265;-76
2023/01/25 10:05:28;;;;;;;13.43;8.93;;;;;;;;;;5023071;28;20210;-76
2023/01/25 10:08:02;;;;;;;12.00;8.33;;;;;;;;;;5016954;28;20301;-75
2023/01/25 10:10:28;;;;;;;13.13;8.80;;;;;;;;;;5017688;28;20705;-76
2023/01/25 10:12:54;;;;;;;13.87;8.57;;;;;;;;;;5023386;28;20197;-76
2023/01/25 10:15:22;;;;;;;11.23;7.53;;;;;;;;;;5025447;28;20198;-76
2023/01/25 10:17:57;;;;;;;12.67;9.03;;;;;;;;;;5020383;28;20741;-76
2023/01/25 10:20:41;;;;;;;13.87;8.53;;;;;;;;;;5015743;28;20203;-76
2023/01/25 10:23:20;;;;;;;12.17;8.40;;;;;;;;;;5017188;28;20254;-76
2023/01/25 10:25:57;;;;;;;12.90;8.77;;;;;;;;;;5018142;28;20198;-76
2023/01/25 10:28:42;;;;;;;13.10;8.60;;;;;;;;;;5019558;28;20204;-76
2023/01/25 10:31:18;;;;;;;12.97;8.87;;;;;;;;;;5018514;28;20182;-76
2023/01/25 10:33:46;;;;;;;12.77;8.47;;;;;;;;;;5021635;28;21084;-76
2023/01/25 10:36:14;;;;;;;12.87;8.17;;;;;;;;;;5020877;28;20187;-76
2023/01/25 10:38:41;;;;;;;13.60;9.20;;;;;;;;;;5014054;28;20179;-76
2023/01/25 10:41:14;;;;;;;13.10;8.87;;;;;;;;;;5023638;28;20186;-76
2023/01/25 10:43:40;;;;;;;16.63;9.77;;;;;;;;;;5023982;28;20222;-76
2023/01/25 10:46:23;;;;;;;15.97;10.00;;;;;;;;;;5017984;28;20237;-76
2023/01/25 10:48:49;;;;;;;14.57;8.87;;;;;;;;;;5028092;28;20681;-76
2023/01/25 10:51:29;;;;;;;12.80;8.77;;;;;;;;;;5019130;28;20178;-76
2023/01/25 10:54:01;;;;;;;12.33;8.47;;;;;;;;;;5019033;28;20705;-76
2023/01/25 10:56:29;;;;;;;13.37;8.63;;;;;;;;;;5019895;28;20206;-76
2023/01/25 10:59:07;;;;;;;13.73;8.67;;;;;;;;;;5017912;28;20191;-76
2023/01/25 11:01:34;;;;;;;13.90;8.87;;;;;;;;;;5018741;28;20202;-76
2023/01/25 11:04:01;;;;;;;13.87;9.23;;;;;;;;;;5018683;28;20190;-76
2023/01/25 11:06:29;;;;;;;15.70;10.77;;;;;;;;;;5020109;28;20183;-76
2023/01/25 11:08:55;;;;;;;13.50;9.33;;;;;;;;;;5017736;28;20884;-76
2023/01/25 11:11:26;;;;;;;16.13;9.23;;;;;;;;;;5018077;28;20249;-76
2023/01/25 11:13:56;;;;;;;13.13;9.00;;;;;;;;;;5016314;28;20266;-76
2023/01/25 11:16:36;;;;;;;14.23;9.13;;;;;;;;;;5020113;28;20253;-76
2023/01/25 11:19:03;;;;;;;14.43;9.03;;;;;;;;;;5014914;28;20187;-78
2023/01/25 11:21:31;;;;;;;14.80;10.67;;;;;;;;;;5018682;28;20194;-76
2023/01/25 11:23:58;;;;;;;14.40;10.00;;;;;;;;;;5017642;28;20175;-76
2023/01/25 11:26:25;;;;;;;12.73;8.33;;;;;;;;;;5019569;28;20179;-76
2023/01/25 11:29:05;;;;;;;13.67;9.53;;;;;;;;;;5019368;28;20832;-76
2023/01/25 11:31:31;;;;;;;14.80;9.33;;;;;;;;;;5015837;28;20271;-76
2023/01/25 11:33:57;;;;;;;17.23;10.47;;;;;;;;;;5018491;28;20592;-76
2023/01/25 11:36:33;;;;;;;17.20;10.37;;;;;;;;;;5018448;28;20198;-76
2023/01/25 11:39:08;;;;;;;13.53;8.87;;;;;;;;;;5020516;28;20186;-77
2023/01/25 11:41:38;;;;;;;14.80;9.60;;;;;;;;;;5018078;28;20207;-76
2023/01/25 11:44:10;;;;;;;13.90;9.00;;;;;;;;;;5014862;28;20218;-76
2023/01/25 11:46:51;;;;;;;14.27;9.33;;;;;;;;;;5016306;28;20193;-76
2023/01/25 11:49:17;;;;;;;14.60;9.37;;;;;;;;;;5016609;28;20340;-76
2023/01/25 11:51:58;;;;;;;16.13;9.33;;;;;;;;;;4999854;28;20202;-76
2023/01/25 11:54:33;;;;;;;17.73;9.73;;;;;;;;;;5023240;28;20217;-76
2023/01/25 11:57:00;;;;;;;14.70;9.60;;;;;;;;;;5018045;28;20179;-76
2023/01/25 11:59:47;;;;;;;15.90;9.97;;;;;;;;;;5017805;28;20200;-76
2023/01/25 12:02:33;;;;;;;15.40;9.67;;;;;;;;;;5040172;28;20186;-76
2023/01/25 12:05:17;;;;;;;15.40;10.17;;;;;;;;;;5040623;28;20209;-76
2023/01/25 12:07:44;;;;;;;16.27;10.17;;;;;;;;;;5020949;28;20282;-76
2023/01/25 12:10:33;;;;;;;15.80;9.60;;;;;;;;;;5019338;28;20354;-80
2023/01/25 12:13:13;;;;;;;14.33;9.33;;;;;;;;;;5025650;28;20183;-83
2023/01/25 12:15:45;;;;;;;16.00;10.20;;;;;;;;;;5019233;28;20353;-75
2023/01/25 12:18:23;;;;;;;15.80;10.67;;;;;;;;;;5019229;28;20551;-76
2023/01/25 12:21:10;;;;;;;16.20;10.30;;;;;;;;;;5020157;28;20186;-75
2023/01/25 12:23:57;;;;;;;14.70;9.80;;;;;;;;;;5015157;28;20270;-75
2023/01/25 12:26:29;;;;;;;15.90;9.47;;;;;;;;;;5015788;28;20190;-75
2023/01/25 12:29:14;;;;;;;15.37;10.30;;;;;;;;;;5016263;28;20682;-75
2023/01/25 12:31:47;;;;;;;16.07;10.07;;;;;;;;;;5024395;28;20601;-75
2023/01/25 12:34:15;;;;;;;19.43;10.30;;;;;;;;;;5018729;28;20565;-77
2023/01/25 12:36:46;;;;;;;15.23;9.97;;;;;;;;;;5020283;28;20194;-75
2023/01/25 12:39:32;;;;;;;15.67;10.10;;;;;;;;;;5025139;28;20222;-75
2023/01/25 12:41:58;;;;;;;14.23;9.30;;;;;;;;;;5022165;28;20187;-73
2023/01/25 12:44:24;;;;;;;17.70;9.63;;;;;;;;;;5023502;28;20203;-74
2023/01/25 12:46:51;;;;;;;14.60;10.57;;;;;;;;;;5022849;28;20195;-74
2023/01/25 12:49:33;;;;;;;15.10;10.13;;;;;;;;;;5019325;28;20206;-73
2023/01/25 12:52:01;;;;;;;15.00;9.97;;;;;;;;;;5022080;28;20210;-73
2023/01/25 12:54:31;;;;;;;14.67;10.03;;;;;;;;;;5026048;28;20237;-75
2023/01/25 12:57:07;;;;;;;15.97;10.40;;;;;;;;;;5027051;28;20692;-73
2023/01/25 12:59:59;;;;;;;18.23;10.90;;;;;;;;;;5008059;28;20190;-73
2023/01/25 13:02:41;;;;;;;15.93;10.40;;;;;;;;;;5022902;28;20195;-73
2023/01/25 13:05:09;;;;;;;16.90;10.63;;;;;;;;;;5023880;28;20286;-73
2023/01/25 13:08:01;;;;;;;15.43;10.03;;;;;;;;;;5026138;28;20597;-73
2023/01/25 13:10:33;;;;;;;15.03;10.20;;;;;;;;;;5023684;28;20194;-74
2023/01/25 13:13:02;;;;;;;15.93;10.40;;;;;;;;;;5022923;28;20222;-77
2023/01/25 13:15:39;;;;;;;15.23;10.00;;;;;;;;;;5023183;28;20206;-74
2023/01/25 13:18:23;;;;;;;15.00;9.83;;;;;;;;;;5025633;28;20641;-76
2023/01/25 13:20:52;;;;;;;15.77;9.40;;;;;;;;;;5029904;28;20179;-74
2023/01/25 13:23:31;;;;;;;17.07;11.03;;;;;;;;;;5020946;28;20220;-77
2023/01/25 13:26:16;;;;;;;15.33;9.90;;;;;;;;;;5020830;28;20252;-76
2023/01/25 13:28:48;;;;;;;19.07;11.17;;;;;;;;;;5029363;28;20340;-77
2023/01/25 13:31:35;;;;;;;16.43;10.70;;;;;;;;;;5024995;28;20266;-78
2023/01/25 13:34:02;;;;;;;19.00;11.97;;;;;;;;;;5020782;28;20217;-77
2023/01/25 13:36:44;;;;;;;17.87;12.17;;;;;;;;;;5031915;28;20182;-77
2023/01/25 13:39:42;;;;;;;16.00;11.10;;;;;;;;;;5017457;28;20278;-77
2023/01/25 13:42:09;;;;;;;15.03;10.47;;;;;;;;;;4999716;28;20218;-77
2023/01/25 13:44:37;;;;;;;18.13;11.80;;;;;;;;;;5022749;28;20730;-77
2023/01/25 13:47:05;;;;;;;16.50;10.83;;;;;;;;;;5025232;28;20179;-76
2023/01/25 13:49:36;;;;;;;16.53;10.50;;;;;;;;;;5031374;28;20195;-76
2023/01/25 13:52:04;;;;;;;15.27;10.40;;;;;;;;;;5027518;28;20194;-75
2023/01/25 13:54:30;;;;;;;15.87;10.60;;;;;;;;;;5022064;28;20295;-75
2023/01/25 13:57:04;;;;;;;15.33;10.33;;;;;;;;;;5025585;28;20189;-75
2023/01/25 13:59:30;;;;;;;16.47;11.03;;;;;;;;;;5026475;28;20178;-75
2023/01/25 14:01:57;;;;;;;15.50;10.97;;;;;;;;;;5030185;28;20220;-76
2023/01/25 14:04:23;;;;;;;15.30;11.10;;;;;;;;;;5022640;28;20686;-76
2023/01/25 14:06:55;;;;;;;17.77;10.57;;;;;;;;;;5026652;28;20199;-75
2023/01/25 14:09:21;;;;;;;16.13;10.57;;;;;;;;;;5028233;28;20686;-75
2023/01/25 14:11:58;;;;;;;14.90;9.30;;;;;;;;;;5026510;28;20179;-75
2023/01/25 14:14:25;;;;;;;14.80;9.97;;;;;;;;;;5024690;28;20206;-75
2023/01/25 14:17:11;;;;;;;15.00;9.97;;;;;;;;;;4989334;28;20537;-75
2023/01/25 14:19:39;;;;;;;15.70;10.67;;;;;;;;;;5029048;28;20277;-76
2023/01/25 14:22:21;;;;;;;14.93;9.77;;;;;;;;;;5030486;28;20178;-76
2023/01/25 14:25:08;;;;;;;14.47;9.67;;;;;;;;;;5027041;28;20233;-75
2023/01/25 14:27:35;;;;;;;15.57;9.87;;;;;;;;;;5020732;28;20223;-75
2023/01/25 14:30:03;;;;;;;15.73;10.23;;;;;;;;;;5028221;28;20187;-76
2023/01/25 14:32:29;;;;;;;14.70;9.70;;;;;;;;;;5018646;28;20194;-75
2023/01/25 14:34:55;;;;;;;17.23;9.77;;;;;;;;;;5028807;28;20198;-76
2023/01/25 14:37:22;;;;;;;15.77;9.70;;;;;;;;;;5019689;28;20218;-76
2023/01/25 14:39:50;;;;;;;17.70;11.33;;;;;;;;;;5013648;28;20194;-74